• Join FlightAware (Why Join?)
  • Login
  • US Flag 
07:02AM EDT


 

Airport Tracker/Info


-or-


 

Live Flight TrackerFlight Track Log ✈ UAL1733 ✈ 02-Sep-2013 ✈ KSNA - KEWR

Flight Track Log - Related Links

Times and Time Zones

All times are in EDT time to prevent confusion due to time zone crossing. See the UAL1733 flight status page for this flight to view local times or setup timezone preferences in your user account.

Time Position Orientation Groundspeed Altitude Reporting Facility
EDT Latitude Longitude Course Direction KTS MPH feet Rate Location/Type
07:36PM 33.6333 -117.8833 84° East 151 174 1,800  Level Southern California TRACON
07:37PM 33.6000 -117.9000 203° Southwest 172 198 3,300 1,140 Climbing Southern California TRACON
07:39PM 33.5344 -117.8667 157° South 218 251 4,500 960 Climbing Los Angeles Center
07:40PM 33.5447 -117.7997 80° East 262 302 5,600 2,160 Climbing Los Angeles Center
07:41PM 33.5622 -117.6689 81° East 284 327 9,000 2,520 Climbing Los Angeles Center
07:42PM 33.5840 -117.1762 84° East  Level FlightAware Approximate
07:42PM 33.5739 -117.5700 82° East 296 341 10,900  Level Los Angeles Center
07:43PM 33.5836 -117.4422 85° East 361 415 12,200 1,560 Climbing Los Angeles Center
07:44PM 33.5894 -117.3194 87° East 391 450 14,200 2,220 Climbing Los Angeles Center
07:45PM 33.5917 -117.1825 89° East 409 471 16,900 2,340 Climbing Los Angeles Center
07:46PM 33.5525 -117.0411 108° East 418 481 19,100 1,980 Climbing Los Angeles Center
07:47PM 33.5186 -116.9039 106° East 430 495 21,100 1,740 Climbing Los Angeles Center
07:48PM 33.4908 -116.7589 103° East 448 516 22,700 1,800 Climbing Los Angeles Center
07:49PM 33.4731 -116.5758 97° East 459 528 24,900 1,740 Climbing Los Angeles Center
07:50PM 33.4578 -116.4250 97° East 456 525 26,300 1,200 Climbing Los Angeles Center
07:51PM 33.4422 -116.2717 97° East 459 528 27,400 1,200 Climbing Los Angeles Center
07:52PM 33.4247 -116.1144 98° East 471 542 28,800 1,440 Climbing Los Angeles Center
07:53PM 33.4072 -115.9614 98° East 466 536 30,500 1,380 Climbing Los Angeles Center
07:54PM 33.3914 -115.8108 97° East 457 526 31,700 1,080 Climbing Los Angeles Center
07:55PM 33.3733 -115.6589 98° East 460 529 32,800 1,080 Climbing Los Angeles Center
07:56PM 33.3517 -115.4747 98° East 465 535 34,000 1,020 Climbing Los Angeles Center
07:57PM 33.3333 -115.3539 100° East 463 533 35,000 1,080 Climbing Los Angeles Center
07:58PM 33.2633 -115.1969 118° Southeast 445 512 36,300 960 Climbing Los Angeles Center
07:59PM 33.2008 -115.0681 120° Southeast 445 512 37,000 240 Climbing Los Angeles Center
08:00PM 33.1383 -114.9403 120° Southeast 445 512 36,900 -60 Descending Los Angeles Center
08:01PM 33.0775 -114.8117 119° Southeast 445 512 36,900  Level Los Angeles Center
08:02PM 33.0058 -114.6606 119° Southeast 439 505 36,900  Level Los Angeles Center
08:04PM 32.9450 -114.5347 120° Southeast 438 504 36,900  Level Los Angeles Center
08:05PM 32.8953 -114.4056 115° Southeast 437 503 37,000  Climbing Los Angeles Center
08:06PM 32.8881 -114.2556 93° East 449 517 36,900  Descending Los Angeles Center
08:07PM 32.8742 -114.1075 96° East 450 518 37,000  Climbing Los Angeles Center
08:08PM 32.8603 -113.9594 96° East 450 518 36,900 -60 Descending Los Angeles Center
08:09PM 32.8444 -113.7800 96° East 454 522 36,900  Level Los Angeles Center
08:10PM 32.8300 -113.6317 97° East 453 521 37,000  Climbing Los Angeles Center
08:11PM 32.8131 -113.4453 96° East 454 522 37,000 -60 Level Albuquerque Center
08:12PM 32.7989 -113.2919 96° East 459 528 36,900 -60 Descending Albuquerque Center
08:13PM 32.7864 -113.1400 96° East 460 529 36,900  Level Albuquerque Center
08:14PM 32.7733 -112.9894 96° East 457 526 36,900  Level Albuquerque Center
08:15PM 32.7556 -112.8081 97° East 457 526 36,900  Level Albuquerque Center
08:16PM 32.7406 -112.6578 97° East 455 524 36,900  Level Albuquerque Center
08:17PM 32.7258 -112.5078 97° East 456 525 36,900  Level Albuquerque Center
08:18PM 32.7103 -112.3617 97° East 449 517 37,000  Climbing Albuquerque Center
08:19PM 32.6969 -112.2275 97° East 447 514 37,000  Level Albuquerque Center
08:20PM 32.7444 -112.0889 68° East 462 532 37,000  Level Albuquerque Center
08:21PM 32.8222 -111.9319 59° Northeast 462 532 37,000  Level Albuquerque Center
08:22PM 32.8836 -111.7994 61° Northeast 461 531 37,000  Level Albuquerque Center
08:23PM 32.9469 -111.6708 60° Northeast 455 524 37,000  Level Albuquerque Center
08:24PM 33.0069 -111.5417 61° Northeast 451 519 37,000  Level Albuquerque Center
08:25PM 33.0494 -111.4022 70° East 449 517 37,000  Level Albuquerque Center
08:26PM 33.0944 -111.2653 69° East 448 516 37,000  Level Albuquerque Center
08:28PM 33.1469 -111.0994 69° East 447 514 37,000  Level Albuquerque Center
08:29PM 33.1911 -110.9617 69° East 448 516 37,000  Level Albuquerque Center
08:30PM 33.2272 -110.8178 73° East 457 526 37,000  Level Albuquerque Center
08:31PM 33.2058 -110.6800 100° East 454 522 37,000  Level Albuquerque Center
08:32PM 33.1883 -110.5331 98° East 450 518 37,000  Level Albuquerque Center
08:33PM 33.2286 -110.3586 75° East 459 528 37,000  Level Albuquerque Center
08:34PM 33.2728 -110.2181 69° East 456 525 37,000  Level Albuquerque Center
08:35PM 33.3181 -110.0756 69° East 457 526 37,000  Level Albuquerque Center
08:36PM 33.3619 -109.9328 70° East 458 527 37,000  Level Albuquerque Center
08:37PM 33.4072 -109.7900 69° East 458 527 37,000  Level Albuquerque Center
08:38PM 33.4517 -109.6464 70° East 458 527 37,000  Level Albuquerque Center
08:39PM 33.4969 -109.5000 70° East 463 533 37,000  Level Albuquerque Center
08:40PM 33.5422 -109.3544 69° East 465 535 37,000  Level Albuquerque Center
08:41PM 33.5956 -109.1803 70° East 462 532 37,000  Level Albuquerque Center
08:42PM 33.6392 -109.0358 70° East 460 529 37,000 480 Level Albuquerque Center
08:43PM 33.6833 -108.8917 70° East 459 528 38,100 960 Climbing Albuquerque Center
08:44PM 33.7269 -108.7486 70° East 458 527 39,000 420 Climbing Albuquerque Center
08:45PM 33.7686 -108.6064 71° East 453 521 39,000  Level Albuquerque Center
08:46PM 33.8125 -108.4594 70° East 451 519 39,000  Level Albuquerque Center
08:47PM 33.8489 -108.3311 71° East 450 518 39,000  Level Albuquerque Center
08:48PM 33.9008 -108.1589 70° East 456 525 39,000  Level Albuquerque Center
08:49PM 33.9444 -108.0125 70° East 456 525 39,000  Level Albuquerque Center
08:51PM 33.9982 -107.7982 71° East  Level FlightAware Approximate
08:51PM 34.0258 -107.7322 71° East 450 518 39,000  Level Albuquerque Center
08:52PM 34.0678 -107.5919 70° East 447 514 39,000  Level Albuquerque Center
08:53PM 34.1072 -107.4514 71° East 446 513 39,000  Level Albuquerque Center
08:54PM 34.1261 -107.3047 81° East 451 519 39,000  Level Albuquerque Center
08:55PM 34.1375 -107.1272 86° East 446 513 39,000  Level Albuquerque Center
08:56PM 34.1472 -106.9789 85° East 446 513 39,000  Level Albuquerque Center
08:57PM 34.1569 -106.8297 85° East 447 514 39,000  Level Albuquerque Center
08:58PM 34.2873 -106.7731 71° East  Level FlightAware Approximate
08:58PM 34.1661 -106.6806 86° East 448 516 39,000  Level Albuquerque Center
08:59PM 34.1747 -106.5319 86° East 448 516 39,000  Level Albuquerque Center
09:00PM 34.1850 -106.3831 85° East 448 516 39,000  Level Albuquerque Center
09:01PM 34.1986 -106.2061 85° East 450 518 39,000  Level Albuquerque Center
09:02PM 34.2278 -106.0750 75° East 450 518 39,000  Level Albuquerque Center
09:03PM 34.2714 -105.9314 70° East 451 519 39,000  Level Albuquerque Center
09:04PM 34.3225 -105.7625 70° East 453 521 39,000  Level Albuquerque Center
09:05PM 34.3769 -105.6258 64° Northeast 450 518 39,000  Level Albuquerque Center
09:06PM 34.4308 -105.4867 65° Northeast 452 520 39,000  Level Albuquerque Center
09:08PM 34.4839 -105.3492 65° Northeast 449 517 39,000  Level Albuquerque Center
09:09PM 34.5378 -105.2119 64° Northeast 447 514 39,000  Level Albuquerque Center
09:10PM 34.5908 -105.0739 65° Northeast 448 516 39,000  Level Albuquerque Center
09:11PM 34.6439 -104.9367 65° Northeast 446 513 39,000  Level Albuquerque Center
09:12PM 34.6961 -104.7986 65° Northeast 447 514 39,000  Level Albuquerque Center
09:13PM 34.7500 -104.6592 65° Northeast 451 519 39,000  Level Albuquerque Center
09:14PM 34.8011 -104.5211 66° East 448 516 39,000  Level Albuquerque Center
09:15PM 34.8533 -104.3814 65° Northeast 450 518 39,000  Level Albuquerque Center
09:16PM 34.9144 -104.2186 65° Northeast 452 520 39,000  Level Albuquerque Center
09:17PM 34.9664 -104.0792 66° East 452 520 39,000  Level Albuquerque Center
09:18PM 35.0203 -103.9397 65° Northeast 455 524 39,000  Level Albuquerque Center
09:19PM 35.0725 -103.7992 66° East 455 524 39,000  Level Albuquerque Center
09:20PM 35.1256 -103.6594 65° Northeast 453 521 39,000  Level Albuquerque Center
09:21PM 35.1778 -103.5181 66° East 453 521 39,000  Level Albuquerque Center
09:22PM 35.2294 -103.3769 66° East 453 521 39,000  Level Albuquerque Center
09:23PM 35.2811 -103.2364 66° East 451 519 39,000  Level Albuquerque Center
09:24PM 35.3325 -103.0950 66° East 451 519 39,000  Level Albuquerque Center
09:25PM 35.3922 -102.9300 66° East 450 518 39,000  Level Albuquerque Center
09:26PM 35.4436 -102.7886 66° East 451 519 39,000  Level Albuquerque Center
09:27PM 35.4933 -102.6467 67° East 451 519 39,000  Level Albuquerque Center
09:28PM 35.5417 -102.5119 66° East 452 520 39,000  Level Albuquerque Center
09:29PM 35.5917 -102.3708 66° East 450 518 39,000  Level Albuquerque Center
09:30PM 35.6422 -102.2289 66° East 451 519 39,000  Level Albuquerque Center
09:31PM 35.6931 -102.0867 66° East 452 520 39,000  Level Albuquerque Center
09:32PM 35.7419 -101.9433 67° East 452 520 39,000  Level Albuquerque Center
09:33PM 35.7925 -101.8017 66° East 451 519 39,000  Level Albuquerque Center
09:34PM 35.8417 -101.6583 67° East 451 519 39,000  Level Albuquerque Center
09:35PM 35.9006 -101.4869 67° East 451 519 39,000  Level Albuquerque Center
09:36PM 35.9503 -101.3433 67° East 453 521 39,000  Level Albuquerque Center
09:37PM 35.9981 -101.1994 68° East 453 521 39,000  Level Albuquerque Center
09:38PM 36.0444 -101.0633 67° East 454 522 39,000  Level Albuquerque Center
09:39PM 36.0936 -100.9203 67° East 452 520 39,000  Level Albuquerque Center
09:40PM 36.1411 -100.7758 68° East 453 521 39,000  Level Albuquerque Center
09:41PM 36.1900 -100.6319 67° East 452 520 39,000  Level Albuquerque Center
09:42PM 36.2464 -100.4608 68° East 450 518 39,000  Level Kansas City Center
09:43PM 36.2944 -100.3175 67° East 449 517 39,000  Level Kansas City Center
09:44PM 36.3414 -100.1742 68° East 448 516 39,000  Level Kansas City Center
09:46PM 36.3878 -100.0311 68° East 445 512 39,000  Level Kansas City Center
09:47PM 36.4436 -99.8611 68° East 442 509 39,000  Level Kansas City Center
09:48PM 36.4903 -99.7189 68° East 442 509 39,000  Level Kansas City Center
09:49PM 36.5375 -99.5750 68° East 444 511 39,000  Level Kansas City Center
09:50PM 36.5839 -99.4303 68° East 446 513 39,000  Level Kansas City Center
09:51PM 36.6294 -99.2869 68° East 444 511 39,000  Level Kansas City Center
09:52PM 36.6753 -99.1414 69° East 446 513 39,000  Level Kansas City Center
09:53PM 36.7214 -98.9978 68° East 445 512 39,000  Level Kansas City Center
09:54PM 36.7658 -98.8544 69° East 442 509 39,000  Level Kansas City Center
09:55PM 36.8106 -98.7106 69° East 443 510 39,000  Level Kansas City Center
09:56PM 36.8561 -98.5664 68° East 443 510 39,000  Level Kansas City Center
09:57PM 36.9028 -98.4156 69° East 446 513 39,000  Level Kansas City Center
09:58PM 36.9478 -98.2706 69° East 448 516 39,000  Level Kansas City Center
09:59PM 36.9917 -98.1250 69° East 449 517 39,000  Level Kansas City Center
10:00PM 37.0364 -97.9806 69° East 448 516 39,000  Level Kansas City Center
10:01PM 37.0883 -97.8072 69° East 447 514 39,000  Level Kansas City Center
10:02PM 37.1328 -97.6619 69° East 448 516 39,000  Level Kansas City Center
10:03PM 37.1761 -97.5158 70° East 449 517 39,000  Level Kansas City Center
10:04PM 37.2203 -97.3714 69° East 448 516 39,000  Level Kansas City Center
10:05PM 37.2633 -97.2250 70° East 449 517 39,000  Level Kansas City Center
10:06PM 37.3058 -97.0800 70° East 447 514 39,000  Level Kansas City Center
10:07PM 37.3494 -96.9328 70° East 450 518 39,000  Level Kansas City Center
10:08PM 37.3942 -96.7844 69° East 454 522 39,000  Level Kansas City Center
10:09PM 37.4469 -96.6064 69° East 456 525 39,000  Level Kansas City Center
10:10PM 37.4883 -96.4589 70° East 451 519 39,000  Level Kansas City Center
10:11PM 37.5344 -96.3019 70° East 450 518 39,000  Level Kansas City Center
10:12PM 37.5769 -96.1533 70° East 450 518 39,000  Level Kansas City Center
10:13PM 37.6189 -96.0044 70° East 449 517 39,000  Level Kansas City Center
10:14PM 37.6619 -95.8547 70° East 450 518 39,000  Level Kansas City Center
10:15PM 37.7019 -95.7097 71° East 444 511 39,000  Level Kansas City Center
10:16PM 37.7442 -95.5614 70° East 442 509 39,000  Level Kansas City Center
10:17PM 37.7853 -95.4075 71° East 454 522 39,000  Level Kansas City Center
10:18PM 37.8267 -95.2575 71° East 453 521 39,000  Level Kansas City Center
10:19PM 37.8694 -95.1017 71° East 449 517 39,000  Level Kansas City Center
10:20PM 37.9089 -94.9594 71° East 449 517 39,000  Level Kansas City Center
10:21PM 37.9539 -94.7942 71° East 447 514 39,000  Level Kansas City Center
10:22PM 37.9928 -94.6536 71° East 444 511 39,000  Level Kansas City Center
10:23PM 38.0303 -94.5097 72° East 447 514 39,000  Level Kansas City Center
10:24PM 38.0761 -94.3422 71° East 451 519 39,000  Level Kansas City Center
10:25PM 38.1142 -94.1978 71° East 451 519 39,000  Level Kansas City Center
10:26PM 38.1586 -94.0269 72° East 447 514 39,000  Level Kansas City Center
10:27PM 38.1989 -93.8756 71° East 449 517 39,000  Level Kansas City Center
10:28PM 38.2389 -93.7244 71° East 450 518 39,000  Level Kansas City Center
10:29PM 38.2786 -93.5728 72° East 450 518 39,000  Level Kansas City Center
10:30PM 38.3175 -93.4203 72° East 452 520 39,000  Level Kansas City Center
10:31PM 38.3578 -93.2669 71° East 454 522 39,000  Level Kansas City Center
10:33PM 38.3975 -93.1114 72° East 457 526 39,000  Level Kansas City Center
10:34PM 38.4364 -92.9586 72° East 453 521 39,000  Level Kansas City Center
10:35PM 38.4750 -92.8047 72° East 453 521 39,000  Level Kansas City Center
10:36PM 38.5139 -92.6492 72° East 454 522 39,000  Level Kansas City Center
10:37PM 38.5517 -92.4942 73° East 455 524 39,000  Level Kansas City Center
10:38PM 38.5900 -92.3397 72° East 454 522 39,000  Level Kansas City Center
10:39PM 38.6275 -92.1856 73° East 452 520 39,000  Level Kansas City Center
10:40PM 38.6633 -92.0319 73° East 450 518 39,000  Level Kansas City Center
10:41PM 38.7011 -91.8781 72° East 450 518 39,000  Level Kansas City Center
10:42PM 38.7389 -91.7239 73° East 452 520 39,000  Level Kansas City Center
10:43PM 38.7769 -91.5578 74° East 451 519 39,000  Level Kansas City Center
10:44PM 38.8131 -91.4047 73° East 450 518 39,000  Level Kansas City Center
10:45PM 38.8500 -91.2519 73° East 448 516 39,000  Level Kansas City Center
10:46PM 38.8869 -91.0986 73° East 449 517 39,000  Level Kansas City Center
10:47PM 38.9225 -90.9453 73° East 448 516 39,000  Level Kansas City Center
10:48PM 38.9583 -90.7911 73° East 448 516 39,000  Level Kansas City Center
10:49PM 38.9947 -90.6369 73° East 448 516 39,000  Level Kansas City Center
10:50PM 39.0311 -90.4797 73° East 453 521 39,000  Level Kansas City Center
10:51PM 39.0664 -90.3214 74° East 455 524 39,000  Level Kansas City Center
10:52PM 39.1008 -90.1639 74° East 455 524 39,000  Level Kansas City Center
10:53PM 39.1433 -89.9728 74° East 456 525 39,000  Level Kansas City Center
10:54PM 39.1775 -89.8203 74° East 447 514 39,000  Level Kansas City Center
10:55PM 39.2106 -89.6664 74° East 450 518 39,000  Level Kansas City Center
10:56PM 39.2442 -89.5108 74° East 451 519 39,000  Level Kansas City Center
10:57PM 39.2786 -89.3558 74° East 450 518 39,000  Level Kansas City Center
10:58PM 39.3117 -89.2006 75° East 450 518 39,000  Level Kansas City Center
10:59PM 39.3450 -89.0431 75° East 452 520 39,000  Level Kansas City Center
11:00PM 39.3797 -88.8883 74° East 452 520 39,000  Level Kansas City Center
11:01PM 39.4122 -88.7297 75° East 455 524 39,000  Level Kansas City Center
11:02PM 39.4431 -88.5761 75° East 453 521 39,000  Level Kansas City Center
11:03PM 39.4758 -88.4175 75° East 451 519 39,000  Level Kansas City Center
11:04PM 39.5089 -88.2586 75° East 452 520 39,000  Level Kansas City Center
11:05PM 39.5403 -88.1019 75° East 453 521 39,000  Level Indianapolis Center
11:06PM 39.5731 -87.9428 75° East 457 526 39,000  Level Indianapolis Center
11:07PM 39.6058 -87.7825 75° East 460 529 39,000  Level Indianapolis Center
11:08PM 39.6378 -87.6211 76° East 462 532 39,000  Level Indianapolis Center
11:09PM 39.6703 -87.4578 75° East 467 537 39,000  Level Indianapolis Center
11:10PM 39.7019 -87.2953 76° East 468 539 39,000  Level Indianapolis Center
11:11PM 39.7339 -87.1311 76° East 469 540 39,000  Level Indianapolis Center
11:12PM 39.7722 -86.9350 76° East 469 540 39,000  Level Indianapolis Center
11:13PM 39.8039 -86.7694 76° East 470 541 39,000  Level Indianapolis Center
11:14PM 39.8358 -86.6039 76° East 472 543 39,000  Level Indianapolis Center
11:15PM 39.8681 -86.4356 76° East 473 544 39,000  Level Indianapolis Center
11:16PM 39.9008 -86.2625 76° East 479 551 39,000  Level Indianapolis Center
11:17PM 39.9317 -86.0911 77° East 479 551 39,000  Level Indianapolis Center
11:18PM 39.9622 -85.9219 77° East 479 551 39,000  Level Indianapolis Center
11:19PM 39.9925 -85.7519 77° East 482 555 39,000  Level Indianapolis Center
11:20PM 40.0306 -85.5847 73° East 484 557 39,000  Level Indianapolis Center
11:21PM 40.0697 -85.4181 73° East 484 557 39,000  Level Indianapolis Center
11:22PM 40.1078 -85.2483 74° East 487 560 39,000  Level Indianapolis Center
11:23PM 40.1481 -85.0781 73° East 491 565 39,000  Level Indianapolis Center
11:24PM 40.1853 -84.9092 74° East 488 562 39,000  Level Indianapolis Center
11:25PM 40.2231 -84.7444 73° East 489 563 39,000  Level Indianapolis Center
11:26PM 40.2689 -84.5397 74° East 487 560 39,000  Level Indianapolis Center
11:27PM 40.3069 -84.3675 74° East 490 564 39,000  Level Indianapolis Center
11:28PM 40.3450 -84.1964 74° East 489 563 39,000  Level Indianapolis Center
11:29PM 40.3822 -84.0233 74° East 490 564 39,000  Level Indianapolis Center
11:30PM 40.4192 -83.8486 74° East 493 567 39,000  Level Indianapolis Center
11:31PM 40.4561 -83.6753 74° East 491 565 39,000  Level Indianapolis Center
11:32PM 40.4928 -83.5011 74° East 490 564 39,000  Level Indianapolis Center
11:33PM 40.5308 -83.3261 74° East 495 570 39,000  Level Indianapolis Center
11:34PM 40.5675 -83.1472 75° East 495 570 39,000  Level Indianapolis Center
11:35PM 40.6039 -82.9700 75° East 497 572 39,000  Level Indianapolis Center
11:36PM 40.6408 -82.7925 75° East 501 577 39,000  Level Indianapolis Center
11:37PM 40.6767 -82.6128 75° East 503 579 39,000  Level Indianapolis Center
11:38PM 40.7136 -82.4342 75° East 502 578 39,000  Level Indianapolis Center
11:39PM 40.7492 -82.2544 75° East 503 579 39,000  Level Indianapolis Center
11:40PM 40.7739 -82.1103 77° East 491 565 39,000  Level Cleveland Center
11:41PM 40.8117 -81.9300 74° East 491 565 39,000  Level Cleveland Center
11:42PM 40.8472 -81.7469 76° East 491 565 39,000  Level Cleveland Center
11:43PM 40.8781 -81.5661 77° East 496 571 39,000  Level Cleveland Center
11:44PM 40.9147 -81.3856 75° East 502 578 39,000  Level Cleveland Center
11:45PM 40.9494 -81.2072 75° East 502 578 39,000  Level Cleveland Center
11:46PM 40.9878 -81.0261 74° East 502 578 39,000  Level Cleveland Center
11:48PM 41.0205 -80.8454 77° East  Level FlightAware Approximate
11:48PM 41.0531 -80.6658 77° East 502 578 39,000  Level Cleveland Center
11:49PM 41.0886 -80.4867 75° East 507 583 39,000  Level Cleveland Center
11:50PM 41.1194 -80.3019 77° East 507 583 39,000  Level Cleveland Center
11:51PM 41.1522 -80.1169 77° East 507 583 39,000  Level Cleveland Center
11:52PM 41.1867 -79.9181 77° East 507 583 39,000  Level Cleveland Center
11:53PM 41.2208 -79.7300 76° East 507 583 39,000  Level Cleveland Center
11:54PM 41.2508 -79.5614 77° East 514 592 39,000  Level Cleveland Center
11:55PM 41.2825 -79.3756 77° East 514 592 39,000  Level Cleveland Center
11:56PM 41.3178 -79.1758 77° East 508 585 39,000  Level Cleveland Center
11:57PM 41.3486 -78.9872 78° East 508 585 39,000  Level Cleveland Center
11:58PM 41.3792 -78.8011 78° East 508 585 39,000  Level Cleveland Center
11:59PM 41.4094 -78.6147 78° East 508 585 39,000  Level Cleveland Center
12:00AM 41.4414 -78.4253 77° East 508 585 39,000  Level Cleveland Center
12:01AM 41.4711 -78.2358 78° East 513 590 39,000  Level Cleveland Center
12:02AM 41.5003 -78.0506 78° East 540 621 39,000  Level New York Center
12:03AM 41.4953 -77.8561 92° East 524 603 39,000  Level New York Center
12:05AM 41.4689 -77.6678 101° East 524 603 39,000  Level New York Center
12:05AM 41.4442 -77.4853 100° East 513 590 39,000  Level New York Center
12:06AM 41.3900 -77.2944 111° Southeast 498 573 39,000  Level New York Center
12:08AM 41.3319 -77.1369 116° Southeast 485 558 39,000 -180 Level New York Center
12:08AM 41.2742 -76.9714 115° Southeast 485 558 38,700 -1,500 Descending New York Center
12:09AM 41.2156 -76.8114 116° Southeast 485 558 36,100 -3,180 Descending New York Center
12:10AM 41.1572 -76.6464 115° Southeast 485 558 32,500 -3,480 Descending New York Center
12:12AM 41.1042 -76.4986 115° Southeast 490 564 29,200 -3,060 Descending New York Center
12:12AM 41.0492 -76.3372 114° Southeast 485 558 26,400 -2,820 Descending New York Center
12:13AM 40.9917 -76.1839 116° Southeast 475 547 23,700 -2,760 Descending New York Center
12:14AM 40.9361 -76.0339 116° Southeast 469 540 21,000 -2,880 Descending New York Center
12:15AM 40.8822 -75.8814 115° Southeast 435 501 18,100 -2,700 Descending New York Center
12:17AM 40.8339 -75.7461 115° Southeast 409 471 15,600 -2,460 Descending New York Center
12:18AM 40.7908 -75.6281 116° Southeast 403 464 13,100 -2,520 Descending New York Center
12:19AM 40.7403 -75.4875 115° Southeast 393 452 10,600 -1,620 Descending New York Center
12:20AM 40.7269 -75.3494 97° East 374 430 9,900 -720 Descending New York Center
12:21AM 40.7294 -75.2319 88° East 344 396 9,200 -420 Descending New York Center
12:21AM 40.7311 -75.1308 89° East 311 358 9,100 -60 Descending New York Center
12:22AM 40.7294 -75.0075 91° East 311 358 9,100  Level New York Center
12:23AM 40.6953 -74.9067 114° Southeast 301 346 9,100 -660 Level New York Center
12:25AM 40.6575 -74.8006 115° Southeast 313 360 7,800 -1,380 Descending New York Center
12:25AM 40.6192 -74.7025 117° Southeast 313 360 6,400 -960 Descending New York Center
12:27AM 40.6553 -74.6172 61° Northeast 253 291 6,000 -300 Descending New York Center
12:27AM 40.7117 -74.5464 44° Northeast 243 280 5,900 -540 Descending New York Center
12:28AM 40.7781 -74.4897 33° Northeast 270 311 5,000 -600 Descending New York Center
12:29AM 40.8458 -74.4550 21° North 270 311 4,700 -540 Descending New York Center
12:30AM 40.9031 -74.4253 21° North 251 289 4,000 -360 Descending New York Center
12:31AM 40.9686 -74.3931 20° North 232 267 4,000  Level New York Center
12:32AM 41.0236 -74.3658 20° North 232 267 4,000 -540 Level New York Center
12:33AM 41.0383 -74.2867 76° East 177 204 3,000 -540 Descending New York Center
12:34AM 40.9942 -74.2322 137° Southeast 169 194 3,000  Level New York Center
12:36AM 40.9333 -74.1333 129° Southeast 236 272 3,100  Climbing New York TRACON
12:37AM 40.8833 -74.0833 143° Southeast 215 247 3,100  Level New York TRACON
12:38AM 40.8500 -74.0667 159° South 192 221 3,100 -540 Level New York TRACON
12:39AM 40.8000 -74.1000 207° Southwest 182 209 2,100 -900 Descending New York TRACON
12:40AM 40.7500 -74.1333 207° Southwest 162 186 1,300 -780 Descending New York TRACON
12:41AM 40.7167 -74.1500 201° Southwest 128 147 600 -720 Descending New York TRACON
12:43AM 40.6925 -74.1687 102° East  Level Estimated
12:50AM 40.6925 -74.1687 102° East  Level Estimated